createdAt,value
2018-11-22T12:16:00.436Z,31.90
2018-11-22T12:19:05.234Z,33.57
2018-11-22T12:22:09.783Z,28.47
2018-11-22T12:25:18.806Z,28.47
2018-11-22T12:28:23.357Z,32.60
2018-11-22T12:31:27.948Z,30.53
2018-11-22T12:35:36.234Z,27.17
2018-11-22T12:38:40.822Z,77.13
2018-11-22T12:41:45.477Z,37.93
2018-11-22T12:44:50.166Z,67.93
2018-11-22T12:47:54.852Z,37.70
2018-11-22T12:50:59.631Z,30.30
2018-11-22T12:54:04.172Z,28.30
2018-11-22T12:57:08.733Z,31.70
2018-11-22T13:00:15.833Z,28.73
2018-11-22T13:03:20.439Z,28.00
2018-11-22T13:06:25.096Z,28.83
2018-11-22T13:09:29.663Z,26.00
2018-11-22T13:12:34.315Z,26.07
2018-11-22T13:15:38.943Z,26.73
2018-11-22T13:18:43.779Z,28.40
2018-11-22T13:21:48.416Z,26.87
2018-11-22T13:24:52.996Z,26.60
2018-11-22T13:27:57.601Z,60.03
2018-11-22T13:31:02.476Z,24.53
2018-11-22T13:34:07.279Z,27.13
2018-11-22T13:37:11.997Z,24.43
2018-11-22T13:40:16.730Z,27.10
2018-11-22T13:43:21.344Z,25.57
2018-11-22T13:46:26.226Z,25.67
2018-11-22T13:49:30.828Z,27.17
2018-11-22T13:52:37.267Z,27.70
2018-11-22T13:55:40.045Z,25.53
2018-11-22T13:58:44.871Z,26.07
2018-11-22T14:01:49.436Z,26.67
2018-11-22T14:04:54.077Z,25.90
2018-11-22T14:07:58.775Z,23.63
2018-11-22T14:11:03.421Z,23.60
2018-11-22T14:14:08.090Z,21.47
2018-11-22T14:17:12.923Z,26.17
2018-11-22T14:20:21.761Z,22.83
2018-11-22T14:23:26.376Z,25.53
2018-11-22T14:26:30.979Z,32.97
2018-11-22T14:29:35.828Z,22.13
2018-11-22T14:32:42.006Z,24.43
2018-11-22T14:35:46.771Z,27.10
2018-11-22T14:38:51.423Z,28.20
2018-11-22T14:41:55.975Z,22.87
2018-11-22T14:45:00.698Z,24.87
2018-11-22T14:48:05.690Z,24.47
2018-11-22T14:51:22.721Z,19.37
2018-11-22T14:54:27.266Z,22.67
2018-11-22T14:57:31.915Z,20.13
2018-11-22T15:00:36.640Z,19.40
2018-11-22T15:03:41.135Z,21.13
2018-11-22T15:06:45.864Z,23.97
2018-11-22T15:09:50.633Z,20.90
2018-11-22T15:12:55.305Z,20.10
2018-11-22T15:16:00.076Z,18.97
2018-11-22T15:19:04.625Z,31.17
2018-11-22T15:22:09.317Z,22.83
2018-11-22T15:25:16.585Z,23.13
2018-11-22T15:28:21.260Z,36.23
2018-11-22T15:31:25.899Z,39.50
2018-11-22T15:34:30.804Z,41.30
2018-11-22T15:37:35.653Z,29.60
2018-11-22T15:40:40.192Z,26.52
2018-11-22T15:43:44.688Z,19.33
2018-11-22T15:46:52.341Z,20.07
2018-11-22T15:49:56.931Z,19.23
2018-11-22T15:53:01.513Z,19.27
2018-11-22T15:56:06.247Z,22.30
2018-11-22T15:59:10.809Z,26.00
2018-11-22T16:02:15.690Z,20.97
2018-11-22T16:05:20.973Z,24.37
2018-11-22T16:08:25.549Z,24.57
2018-11-22T16:11:30.304Z,19.30
2018-11-22T16:14:34.879Z,20.50
2018-11-22T16:17:40.078Z,25.90
2018-11-22T16:20:44.864Z,31.97
2018-11-22T16:23:49.515Z,29.67
2018-11-22T16:26:54.145Z,29.70
2018-11-22T16:30:12.077Z,28.87
2018-11-22T16:33:22.748Z,27.47
2018-11-22T16:36:27.432Z,25.53
2018-11-22T16:39:32.078Z,24.23
2018-11-22T16:42:36.735Z,25.73
2018-11-22T16:45:41.251Z,24.13
2018-11-22T16:48:45.904Z,23.23
2018-11-22T16:51:50.477Z,23.87
2018-11-22T16:54:54.975Z,25.60
2018-11-22T16:58:00.809Z,24.80
2018-11-22T17:01:05.571Z,22.60
2018-11-22T17:04:10.311Z,34.17
2018-11-22T17:07:14.929Z,37.67
2018-11-22T17:10:20.903Z,32.40
2018-11-22T17:13:25.485Z,22.67
2018-11-22T17:16:30.103Z,24.57
2018-11-22T17:19:34.737Z,24.73
2018-11-22T17:22:39.867Z,26.10
2018-11-22T17:25:44.383Z,29.07
2018-11-22T17:28:48.965Z,32.97
2018-11-22T17:31:53.619Z,29.70
2018-11-22T17:34:58.057Z,31.90
2018-11-22T17:38:04.092Z,35.77
2018-11-22T17:41:08.760Z,29.37
2018-11-22T17:44:13.323Z,27.83
2018-11-22T17:47:18.145Z,23.97
2018-11-22T17:50:25.336Z,30.30
2018-11-22T17:53:29.953Z,34.20
2018-11-22T17:56:34.540Z,38.93
2018-11-22T17:59:39.302Z,44.53
2018-11-22T18:02:44.864Z,52.27
2018-11-22T18:05:50.164Z,54.33
2018-11-22T18:08:54.730Z,46.67
2018-11-22T18:11:59.324Z,41.47
2018-11-22T18:15:03.975Z,40.50
2018-11-22T18:18:08.635Z,39.77
2018-11-22T18:21:13.203Z,37.90
2018-11-22T18:24:17.905Z,36.20
2018-11-22T18:27:22.434Z,38.50
2018-11-22T18:30:28.573Z,37.43
2018-11-22T18:33:33.197Z,30.63
2018-11-22T18:36:44.265Z,34.67
2018-11-22T18:39:48.865Z,32.90
2018-11-22T18:42:54.603Z,31.57
2018-11-22T18:45:59.209Z,35.20
2018-11-22T18:49:03.907Z,34.43
2018-11-22T18:52:08.555Z,36.27
2018-11-22T18:55:13.306Z,37.67
2018-11-22T18:58:17.868Z,35.80
2018-11-22T19:01:22.414Z,31.77
2018-11-22T19:04:27.084Z,36.87
2018-11-22T19:07:32.146Z,33.93
2018-11-22T19:10:38.226Z,31.33
2018-11-22T19:13:42.838Z,35.40
2018-11-22T19:16:47.468Z,31.87
2018-11-22T19:19:52.066Z,38.87
2018-11-22T19:22:57.284Z,46.10
2018-11-22T19:26:02.000Z,39.13
2018-11-22T19:29:06.727Z,37.90
2018-11-22T19:32:11.316Z,36.73
2018-11-22T19:35:17.213Z,41.33
2018-11-22T19:38:21.924Z,48.70
2018-11-22T19:41:26.457Z,48.13
2018-11-22T19:44:31.676Z,44.57
2018-11-22T19:47:36.330Z,44.13
2018-11-22T19:50:40.919Z,47.90
2018-11-22T19:53:45.592Z,48.33
2018-11-22T19:56:50.285Z,47.60
2018-11-22T19:59:54.935Z,50.47
2018-11-22T20:03:01.016Z,40.23
2018-11-22T20:06:06.318Z,35.87
2018-11-22T20:09:12.166Z,39.20
2018-11-22T20:12:16.841Z,40.60
2018-11-22T20:15:21.776Z,39.40
2018-11-22T20:18:26.495Z,36.93
2018-11-22T20:21:31.383Z,38.80
2018-11-22T20:24:36.079Z,39.70
2018-11-22T20:27:41.198Z,37.73
2018-11-22T20:30:48.058Z,39.63
2018-11-22T20:33:52.932Z,45.87
2018-11-22T20:36:57.561Z,40.43
2018-11-22T20:40:02.221Z,39.63
2018-11-22T20:43:07.204Z,44.50
2018-11-22T20:46:12.706Z,42.93
2018-11-22T20:49:17.409Z,42.90
2018-11-22T20:52:22.239Z,46.67
2018-11-22T20:55:28.549Z,45.13
2018-11-22T20:58:33.217Z,44.47
2018-11-22T21:01:38.073Z,37.20
2018-11-22T21:04:42.737Z,40.03
2018-11-22T21:07:47.557Z,39.30
2018-11-22T21:10:52.384Z,40.37
2018-11-22T21:13:57.073Z,37.37
2018-11-22T21:17:02.132Z,37.60
2018-11-22T21:20:08.685Z,40.30
2018-11-22T21:23:13.267Z,41.40
2018-11-22T21:26:17.953Z,39.43
2018-11-22T21:29:22.564Z,35.97
2018-11-22T21:32:27.176Z,36.83
2018-11-22T21:35:32.278Z,35.20
2018-11-22T21:38:36.944Z,35.53
2018-11-22T21:41:41.904Z,37.97
2018-11-22T21:44:46.502Z,36.20
2018-11-22T21:47:51.278Z,35.20
2018-11-22T21:50:55.929Z,36.63
2018-11-22T21:54:01.052Z,42.90
2018-11-22T21:57:05.770Z,47.60
2018-11-22T22:00:23.184Z,43.90
2018-11-22T22:03:27.731Z,45.57
2018-11-22T22:06:32.340Z,41.20
2018-11-22T22:09:37.090Z,34.23
2018-11-22T22:12:42.586Z,37.07
2018-11-22T22:15:47.260Z,37.70
2018-11-22T22:18:51.848Z,41.73
2018-11-22T22:21:56.424Z,38.17
2018-11-22T22:25:00.937Z,44.33
2018-11-22T22:28:05.667Z,41.57
2018-11-22T22:31:10.318Z,39.53
2018-11-22T22:34:14.921Z,40.67
2018-11-22T22:37:19.481Z,43.83
2018-11-22T22:40:26.577Z,36.33
2018-11-22T22:43:31.144Z,35.93
2018-11-22T22:46:35.715Z,36.33
2018-11-22T22:49:40.335Z,45.33
2018-11-22T22:52:45.283Z,39.57
2018-11-22T22:55:50.011Z,42.57
2018-11-22T22:58:55.342Z,31.93
2018-11-22T23:01:59.996Z,32.70
2018-11-22T23:05:04.845Z,37.77
2018-11-22T23:08:09.448Z,38.23
2018-11-22T23:11:14.183Z,39.30
2018-11-22T23:14:18.751Z,54.43
2018-11-22T23:17:23.408Z,49.30
2018-11-22T23:20:30.173Z,49.37
2018-11-22T23:23:34.741Z,46.23
2018-11-22T23:26:39.276Z,34.20
2018-11-22T23:29:43.912Z,40.93
2018-11-22T23:32:52.510Z,34.97
2018-11-22T23:35:57.239Z,36.73
2018-11-22T23:39:01.872Z,39.33
2018-11-22T23:42:07.020Z,30.50
2018-11-22T23:45:12.856Z,36.80
2018-11-22T23:48:17.606Z,38.07
2018-11-22T23:51:22.149Z,33.70
2018-11-22T23:54:26.824Z,37.13
2018-11-22T23:57:31.491Z,35.00
